Cleone, California
Current Conditions -  °F | °C
As of 11:56 AM on Wednesday 28 Jan 2015 (Local Time) from KUKI Reporting Station
Clear Clear  
Wind Chill: 61°   Ceiling: Unl
Heat Index: 61°   Visibility: 10mi
Dew Point: 44°   Wind: 0mph
Humidity: 54%   Direction: NA
Pressure: 30.25"   Gusts: NA
Location:  39.4588°N, 123.715°W
Report Text: KUKI 281956Z AUTO 00000KT 10SM CLR 16/07 A3025 RMK AO2 SLP239 T01610067
Loading
Personal Weather Stations






























Interactive Weather Map New forecast layout! Learn more

10-Day Weather Forecast

Advertisements
Track Severe Weather on mobile